createdAt,value
2023-04-01T00:02:42.755Z,5.00
2023-04-01T00:06:37.088Z,4.60
2023-04-01T00:09:55.570Z,4.50
2023-04-01T00:13:33.396Z,5.40
2023-04-01T00:17:30.395Z,4.80
2023-04-01T00:20:51.424Z,4.30
2023-04-01T00:24:26.388Z,3.80
2023-04-01T00:28:04.165Z,4.10
2023-04-01T00:32:01.217Z,3.90
2023-04-01T00:35:19.565Z,3.80
2023-04-01T00:38:59.970Z,4.60
2023-04-01T00:42:34.850Z,3.30
2023-04-01T00:46:12.289Z,3.10
2023-04-01T00:50:10.986Z,2.80
2023-04-01T00:53:50.310Z,2.50
2023-04-01T00:57:31.434Z,2.60
2023-04-01T01:00:44.136Z,2.50
2023-04-01T01:04:40.548Z,3.10
2023-04-01T01:08:01.194Z,2.40
2023-04-01T01:12:17.651Z,3.50
2023-04-01T01:15:50.354Z,3.70
2023-04-01T01:19:21.138Z,3.80
2023-04-01T01:23:17.499Z,3.60
2023-04-01T01:26:39.732Z,3.50
2023-04-01T01:30:08.814Z,2.80
2023-04-01T01:34:13.841Z,2.30
2023-04-01T01:37:20.266Z,2.20
2023-04-01T01:40:58.396Z,2.60
2023-04-01T01:44:52.609Z,3.00
2023-04-01T01:48:11.677Z,2.70
2023-04-01T01:52:06.230Z,3.60
2023-04-01T01:55:38.766Z,3.30
2023-04-01T01:59:12.062Z,4.00
2023-04-01T02:02:45.386Z,3.50
2023-04-01T02:06:24.608Z,3.70
2023-04-01T02:10:15.349Z,3.20
2023-04-01T02:13:57.382Z,3.10
2023-04-01T02:17:32.553Z,2.30
2023-04-01T02:21:09.136Z,2.60
2023-04-01T02:24:29.090Z,2.80
2023-04-01T02:28:07.439Z,3.40
2023-04-01T02:31:43.472Z,2.90
2023-04-01T02:35:19.964Z,2.60
2023-04-01T02:39:03.139Z,2.80
2023-04-01T02:42:54.030Z,3.60
2023-04-01T02:46:12.518Z,3.40
2023-04-01T02:49:50.158Z,3.10
2023-04-01T02:53:27.778Z,3.20
2023-04-01T02:57:05.512Z,3.10
2023-04-01T03:00:43.537Z,3.50
2023-04-01T03:04:39.771Z,3.30
2023-04-01T03:07:58.473Z,3.10
2023-04-01T03:11:55.207Z,3.50
2023-04-01T03:15:15.692Z,3.10
2023-04-01T03:18:53.633Z,3.40
2023-04-01T03:22:29.188Z,3.10
2023-04-01T03:26:06.964Z,3.40
2023-04-01T03:30:05.075Z,4.00
2023-04-01T03:33:22.288Z,3.20
2023-04-01T03:37:00.334Z,3.80
2023-04-01T03:40:39.217Z,4.10
2023-04-01T03:44:15.362Z,3.10
2023-04-01T03:47:53.164Z,3.70
2023-04-01T03:51:31.065Z,3.80
2023-04-01T03:55:08.785Z,4.10
2023-04-01T03:58:46.024Z,4.00
2023-04-01T04:02:23.682Z,4.80
2023-04-01T04:06:20.588Z,5.40
2023-04-01T04:09:39.261Z,4.50
2023-04-01T04:13:16.708Z,4.20
2023-04-01T04:16:54.568Z,4.40
2023-04-01T04:20:51.501Z,4.70
2023-04-01T04:24:29.271Z,5.70
2023-04-01T04:28:06.447Z,17.10
2023-04-01T04:31:44.132Z,13.00
2023-04-01T04:35:21.783Z,7.30
2023-04-01T04:39:02.261Z,5.30
2023-04-01T04:42:37.025Z,5.30
2023-04-01T04:45:56.196Z,4.60
2023-04-01T04:49:52.536Z,4.90
2023-04-01T04:53:30.474Z,5.60
2023-04-01T04:56:48.974Z,4.40
2023-04-01T05:00:26.741Z,4.70
2023-04-01T05:04:23.084Z,4.80
2023-04-01T05:08:01.917Z,5.80
2023-04-01T05:11:38.503Z,7.50
2023-04-01T05:15:16.336Z,8.30
2023-04-01T05:18:54.281Z,6.00
2023-04-01T05:22:12.916Z,9.20
2023-04-01T05:25:51.967Z,9.10
2023-04-01T05:29:28.165Z,5.80
2023-04-01T05:33:05.630Z,5.80
2023-04-01T05:36:44.641Z,6.30
2023-04-01T05:40:40.346Z,5.50
2023-04-01T05:43:58.858Z,4.90
2023-04-01T05:47:36.496Z,3.60
2023-04-01T05:51:15.692Z,3.70
2023-04-01T05:54:52.190Z,4.10
2023-04-01T05:58:52.030Z,3.80
2023-04-01T06:02:07.191Z,4.30
2023-04-01T06:05:45.120Z,4.10
2023-04-01T06:09:28.264Z,4.50
2023-04-01T06:13:06.404Z,4.60
2023-04-01T06:16:58.154Z,5.40
2023-04-01T06:20:21.500Z,4.10
2023-04-01T06:24:06.573Z,4.10
2023-04-01T06:27:52.579Z,4.10
2023-04-01T06:31:16.381Z,3.60
2023-04-01T06:35:11.624Z,3.00
2023-04-01T06:38:37.564Z,2.70
2023-04-01T06:42:16.927Z,3.10
2023-04-01T06:46:00.299Z,2.70
2023-04-01T06:49:36.123Z,3.40
2023-04-01T06:53:23.390Z,4.30
2023-04-01T06:57:22.504Z,4.80
2023-04-01T07:00:35.820Z,3.30
2023-04-01T07:04:10.846Z,3.50
2023-04-01T07:07:44.886Z,3.20
2023-04-01T07:11:30.550Z,3.00
2023-04-01T07:14:57.280Z,3.90
2023-04-01T07:18:57.674Z,3.80
2023-04-01T07:22:30.064Z,3.50
2023-04-01T07:26:25.188Z,3.40
2023-04-01T07:29:46.137Z,4.10
2023-04-01T07:33:33.078Z,3.70
2023-04-01T07:37:16.201Z,2.80
2023-04-01T07:40:57.451Z,3.20
2023-04-01T07:44:45.794Z,3.10
2023-04-01T07:48:26.022Z,2.90
2023-04-01T07:51:52.419Z,2.80
2023-04-01T07:55:31.422Z,2.80
2023-04-01T07:59:44.905Z,3.30
2023-04-01T08:03:19.440Z,3.70
2023-04-01T08:07:11.136Z,3.50
2023-04-01T08:10:56.704Z,3.40
2023-04-01T08:14:46.381Z,3.20
2023-04-01T08:18:32.101Z,3.10
2023-04-01T08:21:53.474Z,3.30
2023-04-01T08:25:58.540Z,3.30
2023-04-01T08:29:05.331Z,2.90
2023-04-01T08:32:44.276Z,3.70
2023-04-01T08:36:29.753Z,3.20
2023-04-01T08:40:25.167Z,3.50
2023-04-01T08:44:01.173Z,13.60
2023-04-01T08:47:44.755Z,4.30
2023-04-01T08:51:12.463Z,4.40
2023-04-01T08:54:43.569Z,4.70
2023-04-01T08:58:23.755Z,3.30
2023-04-01T09:02:04.962Z,3.70
2023-04-01T09:06:22.517Z,3.20
2023-04-01T09:09:47.156Z,3.10
2023-04-01T09:13:30.670Z,3.40
2023-04-01T09:17:26.017Z,2.60
2023-04-01T09:21:06.317Z,2.80
2023-04-01T09:24:15.806Z,2.30
2023-04-01T09:28:02.905Z,2.20
2023-04-01T09:32:11.021Z,2.60
2023-04-01T09:35:37.967Z,2.70
2023-04-01T09:39:12.478Z,2.90
2023-04-01T09:42:55.538Z,2.50
2023-04-01T09:46:38.466Z,3.10
2023-04-01T09:50:16.585Z,1.70
2023-04-01T09:53:44.983Z,2.30
2023-04-01T09:57:36.617Z,1.90
2023-04-01T10:01:23.392Z,1.50
2023-04-01T10:05:19.952Z,2.00
2023-04-01T10:08:41.425Z,2.70
2023-04-01T10:12:19.065Z,1.40
2023-04-01T10:16:12.931Z,1.90
2023-04-01T10:20:04.687Z,1.80
2023-04-01T10:24:02.444Z,3.50
2023-04-01T10:27:12.124Z,2.20
2023-04-01T10:31:21.795Z,1.50
2023-04-01T10:34:44.734Z,1.70
2023-04-01T10:38:45.984Z,1.80
2023-04-01T10:42:14.077Z,1.70
2023-04-01T10:46:15.620Z,1.50
2023-04-01T10:50:03.980Z,2.20
2023-04-01T10:53:18.181Z,1.80
2023-04-01T10:57:18.073Z,1.30
2023-04-01T11:01:07.333Z,1.60
2023-04-01T11:05:22.177Z,2.30
2023-04-01T11:09:06.984Z,1.80
2023-04-01T11:12:42.189Z,2.00
2023-04-01T11:16:25.900Z,1.90
2023-04-01T11:19:48.855Z,2.20
2023-04-01T11:24:02.240Z,1.80
2023-04-01T11:28:11.915Z,1.90
2023-04-01T11:31:33.033Z,1.90
2023-04-01T11:34:56.379Z,2.10
2023-04-01T11:39:34.982Z,2.30
2023-04-01T11:43:09.008Z,3.40
2023-04-01T11:46:42.457Z,1.90
2023-04-01T11:51:13.743Z,1.80
2023-04-01T11:54:41.867Z,1.90
2023-04-01T11:58:27.715Z,2.50
2023-04-01T12:02:40.091Z,2.00
2023-04-01T12:06:05.069Z,2.30
2023-04-01T12:09:52.454Z,1.40
2023-04-01T12:13:13.362Z,1.60
2023-04-01T12:17:13.684Z,1.70
2023-04-01T12:21:01.840Z,1.60
2023-04-01T12:24:23.972Z,1.70
2023-04-01T12:28:05.919Z,1.70
2023-04-01T12:31:34.218Z,1.50
2023-04-01T12:35:14.497Z,1.20
2023-04-01T12:39:19.491Z,1.60
2023-04-01T12:42:28.408Z,1.70
2023-04-01T12:46:33.423Z,1.60
2023-04-01T12:49:56.795Z,1.60
2023-04-01T12:53:40.701Z,1.50
2023-04-01T12:57:49.973Z,1.80
2023-04-01T13:01:17.411Z,0.70
2023-04-01T13:04:34.987Z,0.80
2023-04-01T13:08:40.749Z,0.30
2023-04-01T13:11:57.644Z,0.30
2023-04-01T13:15:50.599Z,0.30
2023-04-01T13:19:32.806Z,0.30
2023-04-01T13:22:38.652Z,0.50
2023-04-01T13:26:46.866Z,0.50
2023-04-01T13:30:00.124Z,0.80
2023-04-01T13:34:38.281Z,0.50
2023-04-01T13:37:53.670Z,1.20
2023-04-01T13:41:25.586Z,0.70
2023-04-01T13:45:21.599Z,0.70
2023-04-01T13:48:49.398Z,0.80
2023-04-01T13:52:21.051Z,1.20
2023-04-01T13:56:35.534Z,1.20
2023-04-01T14:00:04.385Z,1.10
2023-04-01T14:04:00.876Z,1.20
2023-04-01T14:07:18.957Z,1.10
2023-04-01T14:11:00.817Z,1.10
2023-04-01T14:14:28.327Z,0.80
2023-04-01T14:18:27.740Z,1.30
2023-04-01T14:21:56.900Z,1.20
2023-04-01T14:25:40.568Z,1.40
2023-04-01T14:29:36.049Z,1.80
2023-04-01T14:32:48.999Z,1.30
2023-04-01T14:36:44.240Z,1.30
2023-04-01T14:40:54.561Z,2.60
2023-04-01T14:44:16.771Z,2.10
2023-04-01T14:47:49.634Z,2.10
2023-04-01T14:51:33.980Z,2.10
2023-04-01T14:54:52.125Z,1.50
2023-04-01T14:59:00.643Z,2.30
2023-04-01T15:02:30.907Z,1.60
2023-04-01T15:06:03.301Z,1.60
2023-04-01T15:09:59.698Z,1.90
2023-04-01T15:13:13.695Z,2.10
2023-04-01T15:17:10.307Z,2.30
2023-04-01T15:20:42.137Z,2.30
2023-04-01T15:24:14.902Z,2.30
2023-04-01T15:28:11.523Z,2.40
2023-04-01T15:32:05.453Z,2.30
2023-04-01T15:35:47.912Z,3.20
2023-04-01T15:39:14.265Z,2.90
2023-04-01T15:42:29.500Z,2.80
2023-04-01T15:46:17.430Z,2.90
2023-04-01T15:50:23.364Z,2.00
2023-04-01T15:53:57.888Z,2.30
2023-04-01T15:57:28.963Z,2.70
2023-04-01T16:00:41.606Z,2.70
2023-04-01T16:04:49.878Z,2.60
2023-04-01T16:08:08.557Z,2.90
2023-04-01T16:11:57.857Z,3.30
2023-04-01T16:15:27.356Z,3.10
2023-04-01T16:19:23.240Z,2.60
2023-04-01T16:22:35.489Z,2.50
2023-04-01T16:26:21.695Z,2.60
2023-04-01T16:30:04.273Z,3.20
2023-04-01T16:33:49.227Z,2.80
2023-04-01T16:37:14.061Z,3.20
2023-04-01T16:40:54.322Z,2.80
2023-04-01T16:44:13.745Z,2.80
2023-04-01T16:48:14.369Z,2.00
2023-04-01T16:51:52.381Z,2.40
2023-04-01T16:55:58.019Z,3.30
2023-04-01T16:59:07.505Z,3.40
2023-04-01T17:02:48.950Z,3.00
2023-04-01T17:06:45.450Z,3.00
2023-04-01T17:10:28.244Z,2.80
2023-04-01T17:13:55.863Z,2.60
2023-04-01T17:17:27.784Z,3.40
2023-04-01T17:21:13.497Z,3.30
2023-04-01T17:25:06.471Z,2.80
2023-04-01T17:28:32.087Z,2.70
2023-04-01T17:32:17.356Z,3.60
2023-04-01T17:35:38.760Z,4.30
2023-04-01T17:39:28.563Z,5.20
2023-04-01T17:42:56.362Z,4.20
2023-04-01T17:46:36.562Z,5.00
2023-04-01T17:50:45.653Z,4.60
2023-04-01T17:54:32.242Z,5.20
2023-04-01T17:58:04.165Z,4.50
2023-04-01T18:01:46.333Z,4.90
2023-04-01T18:05:05.764Z,4.50
2023-04-01T18:08:53.208Z,4.30
2023-04-01T18:12:33.615Z,3.90
2023-04-01T18:16:02.137Z,4.00
2023-04-01T18:19:33.905Z,4.50
2023-04-01T18:23:15.525Z,5.10
2023-04-01T18:26:40.992Z,4.80
2023-04-01T18:30:19.801Z,5.10
2023-04-01T18:34:09.189Z,5.80
2023-04-01T18:37:35.254Z,4.40
2023-04-01T18:41:35.684Z,5.00
2023-04-01T18:44:56.212Z,5.00
2023-04-01T18:48:53.359Z,4.80
2023-04-01T18:52:27.315Z,5.60
2023-04-01T18:55:48.803Z,5.40
2023-04-01T18:59:41.594Z,4.10
2023-04-01T19:03:03.976Z,4.00
2023-04-01T19:06:58.947Z,6.20
2023-04-01T19:10:36.334Z,6.80
2023-04-01T19:14:12.901Z,6.40
2023-04-01T19:18:01.940Z,5.20
2023-04-01T19:21:15.020Z,9.20
2023-04-01T19:25:11.366Z,7.00
2023-04-01T19:28:29.119Z,7.30
2023-04-01T19:32:03.313Z,9.10
2023-04-01T19:36:12.870Z,8.90
2023-04-01T19:39:53.019Z,9.20
2023-04-01T19:43:06.614Z,7.10
2023-04-01T19:46:49.501Z,8.50
2023-04-01T19:50:58.051Z,8.20
2023-04-01T19:54:37.837Z,7.60
2023-04-01T19:58:16.068Z,9.80
2023-04-01T20:01:49.089Z,8.10
2023-04-01T20:05:17.000Z,9.50
2023-04-01T20:09:04.090Z,7.90
2023-04-01T20:12:47.051Z,9.20
2023-04-01T20:16:06.187Z,8.30
2023-04-01T20:20:10.960Z,12.50
2023-04-01T20:23:53.209Z,7.70
2023-04-01T20:27:11.618Z,7.70
2023-04-01T20:31:15.882Z,9.80
2023-04-01T20:34:37.123Z,9.40
2023-04-01T20:38:33.118Z,7.80
2023-04-01T20:41:52.767Z,7.90
2023-04-01T20:45:29.429Z,8.60
2023-04-01T20:49:23.907Z,7.80
2023-04-01T20:53:12.151Z,8.00
2023-04-01T20:56:57.844Z,8.30
2023-04-01T21:00:37.391Z,8.40
2023-04-01T21:04:02.456Z,7.80
2023-04-01T21:07:38.853Z,9.40
2023-04-01T21:10:58.898Z,8.70
2023-04-01T21:15:05.260Z,8.50
2023-04-01T21:18:42.008Z,8.80
2023-04-01T21:22:26.504Z,9.80
2023-04-01T21:25:37.300Z,10.00
2023-04-01T21:29:35.063Z,9.90
2023-04-01T21:33:14.154Z,9.40
2023-04-01T21:36:37.769Z,9.00
2023-04-01T21:40:04.945Z,9.50
2023-04-01T21:44:00.193Z,10.80
2023-04-01T21:47:24.922Z,11.00
2023-04-01T21:51:28.096Z,10.40
2023-04-01T21:54:45.679Z,10.20
2023-04-01T21:58:27.056Z,10.90
2023-04-01T22:02:22.152Z,9.90
2023-04-01T22:06:00.431Z,8.80
2023-04-01T22:09:12.815Z,10.60
2023-04-01T22:13:03.792Z,10.30
2023-04-01T22:16:51.700Z,10.00
2023-04-01T22:20:34.198Z,10.30
2023-04-01T22:23:49.059Z,8.10
2023-04-01T22:27:44.648Z,9.60
2023-04-01T22:30:57.473Z,7.70
2023-04-01T22:35:14.352Z,8.90
2023-04-01T22:38:48.435Z,8.30
2023-04-01T22:42:15.076Z,8.00
2023-04-01T22:46:06.552Z,8.00
2023-04-01T22:49:33.821Z,6.80
2023-04-01T22:53:27.930Z,7.50
2023-04-01T22:56:41.211Z,6.60
2023-04-01T23:00:42.697Z,8.50
2023-04-01T23:03:52.308Z,6.00
2023-04-01T23:07:32.764Z,9.00
2023-04-01T23:11:09.249Z,7.60
2023-04-01T23:14:52.470Z,9.50
2023-04-01T23:18:29.084Z,9.10
2023-04-01T23:22:36.338Z,8.60
2023-04-01T23:25:55.209Z,7.60
2023-04-01T23:29:40.443Z,10.50
2023-04-01T23:32:54.393Z,10.40
2023-04-01T23:36:40.028Z,8.40
2023-04-01T23:40:28.672Z,10.90
2023-04-01T23:44:11.797Z,9.60
2023-04-01T23:47:32.678Z,11.10
2023-04-01T23:51:27.352Z,9.70
2023-04-01T23:54:58.435Z,10.80
2023-04-01T23:58:49.015Z,10.20
